sensor_id;sensor_type;location;lat;lon;timestamp;P1;durP1;ratioP1;P2;durP2;ratioP2
64419;SDS011;50745;48.170;14.516;2023-04-06T00:02:04;3.42;;;2.20;;
64419;SDS011;50745;48.170;14.516;2023-04-06T00:12:19;3.53;;;2.20;;
64419;SDS011;50745;48.170;14.516;2023-04-06T00:22:40;2.80;;;2.00;;
64419;SDS011;50745;48.170;14.516;2023-04-06T00:32:54;3.08;;;2.30;;
64419;SDS011;50745;48.170;14.516;2023-04-06T00:43:16;2.77;;;2.10;;
64419;SDS011;50745;48.170;14.516;2023-04-06T00:53:31;3.75;;;2.30;;
64419;SDS011;50745;48.170;14.516;2023-04-06T01:03:54;3.67;;;2.22;;
64419;SDS011;50745;48.170;14.516;2023-04-06T01:14:10;2.97;;;2.20;;
64419;SDS011;50745;48.170;14.516;2023-04-06T01:24:38;3.78;;;2.20;;
64419;SDS011;50745;48.170;14.516;2023-04-06T01:34:58;5.72;;;2.30;;
64419;SDS011;50745;48.170;14.516;2023-04-06T01:45:26;2.95;;;2.10;;
64419;SDS011;50745;48.170;14.516;2023-04-06T01:55:49;3.40;;;2.30;;
64419;SDS011;50745;48.170;14.516;2023-04-06T02:06:20;3.58;;;2.22;;
64419;SDS011;50745;48.170;14.516;2023-04-06T02:16:35;4.32;;;2.38;;
64419;SDS011;50745;48.170;14.516;2023-04-06T02:37:14;3.50;;;2.20;;
64419;SDS011;50745;48.170;14.516;2023-04-06T02:47:42;2.90;;;2.20;;
64419;SDS011;50745;48.170;14.516;2023-04-06T02:57:51;3.17;;;2.33;;
64419;SDS011;50745;48.170;14.516;2023-04-06T03:08:28;3.22;;;2.20;;
64419;SDS011;50745;48.170;14.516;2023-04-06T03:18:43;3.50;;;2.30;;
64419;SDS011;50745;48.170;14.516;2023-04-06T03:29:05;3.38;;;2.30;;
64419;SDS011;50745;48.170;14.516;2023-04-06T03:39:20;3.08;;;2.33;;
64419;SDS011;50745;48.170;14.516;2023-04-06T03:49:41;3.13;;;2.13;;
64419;SDS011;50745;48.170;14.516;2023-04-06T03:59:57;3.60;;;2.47;;
64419;SDS011;50745;48.170;14.516;2023-04-06T04:10:20;3.25;;;2.15;;
64419;SDS011;50745;48.170;14.516;2023-04-06T04:20:35;3.30;;;2.30;;
64419;SDS011;50745;48.170;14.516;2023-04-06T04:30:57;3.78;;;2.47;;
64419;SDS011;50745;48.170;14.516;2023-04-06T04:41:15;3.28;;;2.42;;
64419;SDS011;50745;48.170;14.516;2023-04-06T04:51:36;3.87;;;2.37;;
64419;SDS011;50745;48.170;14.516;2023-04-06T05:01:54;5.63;;;2.60;;
64419;SDS011;50745;48.170;14.516;2023-04-06T05:12:28;4.80;;;2.40;;
64419;SDS011;50745;48.170;14.516;2023-04-06T05:22:48;3.75;;;2.33;;
64419;SDS011;50745;48.170;14.516;2023-04-06T05:33:11;5.10;;;2.22;;
64419;SDS011;50745;48.170;14.516;2023-04-06T05:43:49;5.22;;;2.80;;
64419;SDS011;50745;48.170;14.516;2023-04-06T05:54:12;5.22;;;2.45;;
64419;SDS011;50745;48.170;14.516;2023-04-06T06:04:27;4.00;;;2.42;;
64419;SDS011;50745;48.170;14.516;2023-04-06T06:14:48;5.00;;;2.50;;
64419;SDS011;50745;48.170;14.516;2023-04-06T06:25:05;3.63;;;2.60;;
64419;SDS011;50745;48.170;14.516;2023-04-06T06:35:28;3.88;;;2.55;;
64419;SDS011;50745;48.170;14.516;2023-04-06T06:45:45;3.72;;;2.33;;
64419;SDS011;50745;48.170;14.516;2023-04-06T06:56:06;3.25;;;2.25;;
64419;SDS011;50745;48.170;14.516;2023-04-06T07:06:21;4.18;;;2.50;;
64419;SDS011;50745;48.170;14.516;2023-04-06T07:16:41;4.50;;;2.70;;
64419;SDS011;50745;48.170;14.516;2023-04-06T07:26:58;4.30;;;2.20;;
64419;SDS011;50745;48.170;14.516;2023-04-06T07:37:20;3.38;;;2.50;;
64419;SDS011;50745;48.170;14.516;2023-04-06T07:47:36;4.40;;;2.45;;
64419;SDS011;50745;48.170;14.516;2023-04-06T07:57:56;3.40;;;2.30;;
64419;SDS011;50745;48.170;14.516;2023-04-06T08:08:11;5.88;;;2.40;;
64419;SDS011;50745;48.170;14.516;2023-04-06T08:18:31;4.10;;;2.50;;
64419;SDS011;50745;48.170;14.516;2023-04-06T08:28:46;3.92;;;2.40;;
64419;SDS011;50745;48.170;14.516;2023-04-06T08:39:14;3.92;;;2.50;;
64419;SDS011;50745;48.170;14.516;2023-04-06T08:49:45;4.07;;;2.50;;
64419;SDS011;50745;48.170;14.516;2023-04-06T08:59:53;3.60;;;2.50;;
64419;SDS011;50745;48.170;14.516;2023-04-06T09:10:21;4.53;;;2.50;;
64419;SDS011;50745;48.170;14.516;2023-04-06T09:20:30;4.18;;;2.65;;
64419;SDS011;50745;48.170;14.516;2023-04-06T09:30:58;4.07;;;2.47;;
64419;SDS011;50745;48.170;14.516;2023-04-06T09:41:06;3.95;;;2.53;;
64419;SDS011;50745;48.170;14.516;2023-04-06T09:51:37;3.90;;;2.53;;
64419;SDS011;50745;48.170;14.516;2023-04-06T10:01:46;3.70;;;2.40;;
64419;SDS011;50745;48.170;14.516;2023-04-06T10:12:14;3.97;;;2.38;;
64419;SDS011;50745;48.170;14.516;2023-04-06T10:22:24;3.50;;;2.30;;
64419;SDS011;50745;48.170;14.516;2023-04-06T10:32:53;4.07;;;2.40;;
64419;SDS011;50745;48.170;14.516;2023-04-06T10:53:35;4.43;;;2.65;;
64419;SDS011;50745;48.170;14.516;2023-04-06T11:03:47;3.80;;;2.60;;
64419;SDS011;50745;48.170;14.516;2023-04-06T11:14:14;4.23;;;2.50;;
64419;SDS011;50745;48.170;14.516;2023-04-06T11:24:23;3.67;;;2.58;;
64419;SDS011;50745;48.170;14.516;2023-04-06T11:34:50;3.83;;;2.60;;
64419;SDS011;50745;48.170;14.516;2023-04-06T11:44:58;4.32;;;2.40;;
64419;SDS011;50745;48.170;14.516;2023-04-06T11:55:26;3.65;;;2.30;;
64419;SDS011;50745;48.170;14.516;2023-04-06T12:05:34;4.00;;;2.50;;
64419;SDS011;50745;48.170;14.516;2023-04-06T12:16:02;3.85;;;2.65;;
64419;SDS011;50745;48.170;14.516;2023-04-06T12:26:10;3.50;;;2.35;;
64419;SDS011;50745;48.170;14.516;2023-04-06T12:36:38;3.75;;;2.40;;
64419;SDS011;50745;48.170;14.516;2023-04-06T12:46:46;3.53;;;2.40;;
64419;SDS011;50745;48.170;14.516;2023-04-06T12:57:14;4.43;;;2.58;;
64419;SDS011;50745;48.170;14.516;2023-04-06T13:07:22;3.67;;;2.30;;
64419;SDS011;50745;48.170;14.516;2023-04-06T13:17:50;3.65;;;2.53;;
64419;SDS011;50745;48.170;14.516;2023-04-06T13:28:05;3.60;;;2.38;;
64419;SDS011;50745;48.170;14.516;2023-04-06T13:38:32;3.75;;;2.50;;
64419;SDS011;50745;48.170;14.516;2023-04-06T13:49:00;3.33;;;2.50;;
64419;SDS011;50745;48.170;14.516;2023-04-06T13:59:32;4.85;;;2.50;;
64419;SDS011;50745;48.170;14.516;2023-04-06T14:09:40;3.40;;;2.60;;
64419;SDS011;50745;48.170;14.516;2023-04-06T14:20:08;3.97;;;2.75;;
64419;SDS011;50745;48.170;14.516;2023-04-06T14:30:21;3.97;;;2.83;;
64419;SDS011;50745;48.170;14.516;2023-04-06T14:40:48;5.05;;;2.60;;
64419;SDS011;50745;48.170;14.516;2023-04-06T14:50:57;3.27;;;2.40;;
64419;SDS011;50745;48.170;14.516;2023-04-06T15:01:24;5.25;;;2.80;;
64419;SDS011;50745;48.170;14.516;2023-04-06T15:11:32;3.53;;;2.65;;
64419;SDS011;50745;48.170;14.516;2023-04-06T15:21:59;3.47;;;2.58;;
64419;SDS011;50745;48.170;14.516;2023-04-06T15:32:07;4.40;;;2.67;;
64419;SDS011;50745;48.170;14.516;2023-04-06T15:42:36;3.42;;;2.60;;
64419;SDS011;50745;48.170;14.516;2023-04-06T15:52:44;4.37;;;2.30;;
64419;SDS011;50745;48.170;14.516;2023-04-06T16:03:12;3.05;;;2.20;;
64419;SDS011;50745;48.170;14.516;2023-04-06T16:13:20;3.85;;;2.13;;
64419;SDS011;50745;48.170;14.516;2023-04-06T16:23:47;4.18;;;2.80;;
64419;SDS011;50745;48.170;14.516;2023-04-06T16:33:55;3.83;;;2.70;;
64419;SDS011;50745;48.170;14.516;2023-04-06T16:44:23;5.32;;;3.17;;
64419;SDS011;50745;48.170;14.516;2023-04-06T16:54:31;5.40;;;2.72;;
64419;SDS011;50745;48.170;14.516;2023-04-06T17:04:59;3.60;;;2.65;;
64419;SDS011;50745;48.170;14.516;2023-04-06T17:15:07;3.30;;;2.38;;
64419;SDS011;50745;48.170;14.516;2023-04-06T17:25:35;3.63;;;2.53;;
64419;SDS011;50745;48.170;14.516;2023-04-06T17:35:44;3.70;;;2.80;;
64419;SDS011;50745;48.170;14.516;2023-04-06T17:46:12;6.40;;;4.93;;
64419;SDS011;50745;48.170;14.516;2023-04-06T17:56:19;8.52;;;4.10;;
64419;SDS011;50745;48.170;14.516;2023-04-06T18:06:47;6.50;;;3.58;;
64419;SDS011;50745;48.170;14.516;2023-04-06T18:16:54;5.45;;;3.42;;
64419;SDS011;50745;48.170;14.516;2023-04-06T18:27:22;5.75;;;3.20;;
64419;SDS011;50745;48.170;14.516;2023-04-06T18:37:31;4.72;;;2.90;;
64419;SDS011;50745;48.170;14.516;2023-04-06T18:48:01;4.82;;;2.80;;
64419;SDS011;50745;48.170;14.516;2023-04-06T18:58:08;4.47;;;2.73;;
64419;SDS011;50745;48.170;14.516;2023-04-06T19:08:36;4.57;;;2.97;;
64419;SDS011;50745;48.170;14.516;2023-04-06T19:18:43;3.60;;;2.60;;
64419;SDS011;50745;48.170;14.516;2023-04-06T19:29:12;4.32;;;2.60;;
64419;SDS011;50745;48.170;14.516;2023-04-06T19:39:20;3.58;;;2.60;;
64419;SDS011;50745;48.170;14.516;2023-04-06T19:49:48;4.97;;;2.70;;
64419;SDS011;50745;48.170;14.516;2023-04-06T19:59:55;3.28;;;2.55;;
64419;SDS011;50745;48.170;14.516;2023-04-06T20:10:26;3.78;;;2.60;;
64419;SDS011;50745;48.170;14.516;2023-04-06T20:20:33;3.00;;;2.22;;
64419;SDS011;50745;48.170;14.516;2023-04-06T20:31:01;5.18;;;2.70;;
64419;SDS011;50745;48.170;14.516;2023-04-06T20:41:08;4.80;;;2.63;;
64419;SDS011;50745;48.170;14.516;2023-04-06T20:51:36;4.65;;;2.40;;
64419;SDS011;50745;48.170;14.516;2023-04-06T21:01:43;3.92;;;2.45;;
64419;SDS011;50745;48.170;14.516;2023-04-06T21:12:11;4.85;;;2.50;;
64419;SDS011;50745;48.170;14.516;2023-04-06T21:22:21;2.90;;;2.20;;
64419;SDS011;50745;48.170;14.516;2023-04-06T21:32:49;3.42;;;2.58;;
64419;SDS011;50745;48.170;14.516;2023-04-06T21:42:56;3.42;;;2.30;;
64419;SDS011;50745;48.170;14.516;2023-04-06T21:53:24;3.42;;;2.53;;
64419;SDS011;50745;48.170;14.516;2023-04-06T22:03:31;3.13;;;2.30;;
64419;SDS011;50745;48.170;14.516;2023-04-06T22:13:59;3.20;;;2.40;;
64419;SDS011;50745;48.170;14.516;2023-04-06T22:24:06;2.90;;;2.20;;
64419;SDS011;50745;48.170;14.516;2023-04-06T22:34:34;3.42;;;2.50;;
64419;SDS011;50745;48.170;14.516;2023-04-06T22:44:42;3.92;;;2.58;;
64419;SDS011;50745;48.170;14.516;2023-04-06T22:55:10;3.28;;;2.40;;
64419;SDS011;50745;48.170;14.516;2023-04-06T23:05:18;3.35;;;2.35;;
64419;SDS011;50745;48.170;14.516;2023-04-06T23:15:46;4.00;;;2.50;;
64419;SDS011;50745;48.170;14.516;2023-04-06T23:25:54;4.70;;;2.70;;
64419;SDS011;50745;48.170;14.516;2023-04-06T23:36:22;5.28;;;2.53;;
64419;SDS011;50745;48.170;14.516;2023-04-06T23:46:30;3.35;;;2.40;;
64419;SDS011;50745;48.170;14.516;2023-04-06T23:56:57;3.78;;;2.60;;
